Time;durP1;ratioP1;P1;durP2;ratioP2;P2;SDS_P1;SDS_P2;PMS_P1;PMS_P2;Temp;Humidity;BMP_temperature;BMP_pressure;BME280_temperature;BME280_humidity;BME280_pressure;Samples;Min_cycle;Max_cycle;Signal;HPM_P1;HPM_P2
2021/07/11 00:01:41;;;;;;;17.20;10.27;;;;;;;15.46;81.31;101803.72;5061569;28;20032;-49
2021/07/11 00:04:07;;;;;;;13.82;9.73;;;;;;;15.45;81.32;101799.38;5062220;28;20632;-47
2021/07/11 00:06:36;;;;;;;15.25;10.48;;;;;;;15.40;81.48;101808.22;5063620;28;20024;-48
2021/07/11 00:09:06;;;;;;;12.65;9.65;;;;;;;15.40;81.61;101802.81;5065036;28;20016;-49
2021/07/11 00:11:31;;;;;;;15.05;11.23;;;;;;;15.37;81.97;101808.72;5063801;28;20132;-47
2021/07/11 00:14:01;;;;;;;13.07;9.95;;;;;;;15.35;81.87;101805.47;5061066;28;20115;-47
2021/07/11 00:16:33;;;;;;;12.88;9.98;;;;;;;15.34;81.98;101811.94;5062764;28;20201;-47
2021/07/11 00:18:59;;;;;;;19.30;9.88;;;;;;;15.31;81.99;101805.19;5064078;28;20029;-48
2021/07/11 00:21:24;;;;;;;13.30;9.63;;;;;;;15.29;81.94;101807.31;5063318;28;20332;-47
2021/07/11 00:23:50;;;;;;;17.17;9.88;;;;;;;15.27;82.05;101801.34;5064234;28;20032;-48
2021/07/11 00:26:16;;;;;;;14.57;9.98;;;;;;;15.24;82.16;101809.94;5061859;28;20044;-50
2021/07/11 00:28:42;;;;;;;14.95;9.00;;;;;;;15.22;82.12;101801.28;5061153;28;20082;-48
2021/07/11 00:31:07;;;;;;;14.02;8.40;;;;;;;15.19;81.98;101800.97;5063131;28;20024;-48
2021/07/11 00:33:33;;;;;;;17.02;8.75;;;;;;;15.16;82.00;101802.31;5059302;28;20051;-51
2021/07/11 00:35:58;;;;;;;19.08;10.43;;;;;;;15.13;82.02;101808.22;5059720;28;20029;-47
2021/07/11 00:38:24;;;;;;;24.98;10.13;;;;;;;15.08;82.20;101800.88;5062103;28;20067;-49
2021/07/11 00:40:49;;;;;;;13.60;9.48;;;;;;;15.06;82.59;101803.00;5063723;28;20176;-48
2021/07/11 00:43:15;;;;;;;11.60;9.60;;;;;;;15.08;82.65;101800.88;5062129;28;20039;-48
2021/07/11 00:45:41;;;;;;;14.00;9.68;;;;;;;15.07;82.36;101798.41;5062721;28;20028;-48
2021/07/11 00:48:07;;;;;;;15.77;9.15;;;;;;;15.07;82.55;101796.53;5061855;28;20040;-48
2021/07/11 00:50:34;;;;;;;12.02;8.88;;;;;;;15.06;82.51;101791.38;5062994;28;20095;-47
2021/07/11 00:53:00;;;;;;;12.57;9.43;;;;;;;15.06;82.57;101796.78;5062775;28;20039;-47
2021/07/11 00:55:25;;;;;;;12.32;9.07;;;;;;;15.01;82.43;101799.41;5064466;28;21732;-47
2021/07/11 00:57:51;;;;;;;13.68;9.20;;;;;;;14.97;82.64;101788.31;5061956;28;20035;-48
2021/07/11 01:00:17;;;;;;;13.82;8.35;;;;;;;14.94;82.68;101786.13;5063427;28;20067;-48
2021/07/11 01:02:45;;;;;;;14.45;9.82;;;;;;;14.88;82.57;101787.13;5061994;28;20024;-47
2021/07/11 01:05:12;;;;;;;14.85;8.48;;;;;;;14.86;83.23;101791.13;5059821;28;20107;-47
2021/07/11 01:07:53;;;;;;;11.18;9.38;;;;;;;14.81;82.84;101787.31;5061066;28;20493;-48
2021/07/11 01:10:44;;;;;;;15.27;9.77;;;;;;;14.80;83.13;101791.09;5063252;28;20032;-48
2021/07/11 01:13:15;;;;;;;13.02;9.50;;;;;;;14.78;83.07;101785.13;5053280;28;20043;-48
2021/07/11 01:15:48;;;;;;;12.23;9.50;;;;;;;14.77;83.08;101782.69;5062319;28;20023;-50
2021/07/11 01:18:18;;;;;;;14.98;8.90;;;;;;;14.76;83.12;101781.06;5062400;28;20051;-48
2021/07/11 01:20:51;;;;;;;13.55;8.68;;;;;;;14.75;82.94;101791.03;5058933;28;20024;-48
2021/07/11 01:23:36;;;;;;;10.95;8.10;;;;;;;14.72;83.10;101786.13;5061781;28;20551;-49
2021/07/11 01:26:05;;;;;;;13.15;8.00;;;;;;;14.73;82.88;101795.88;5062103;28;20039;-49
2021/07/11 01:28:30;;;;;;;14.57;8.95;;;;;;;14.71;83.00;101779.09;5064937;28;20479;-48
2021/07/11 01:30:56;;;;;;;15.43;9.00;;;;;;;14.70;83.04;101787.44;5061516;28;20278;-48
2021/07/11 01:33:25;;;;;;;16.40;8.75;;;;;;;14.66;83.29;101791.69;5063818;28;20020;-48
2021/07/11 01:35:51;;;;;;;17.20;8.98;;;;;;;14.61;83.38;101792.44;5062887;28;20052;-48
2021/07/11 01:38:17;;;;;;;14.48;8.35;;;;;;;14.58;83.61;101792.97;5059729;28;20059;-47
2021/07/11 01:40:46;;;;;;;15.38;9.80;;;;;;;14.57;83.66;101788.63;5057598;28;20528;-48
2021/07/11 01:43:15;;;;;;;13.52;8.27;;;;;;;14.55;83.60;101785.38;5061343;28;20029;-48
2021/07/11 01:45:42;;;;;;;14.52;8.73;;;;;;;14.54;83.67;101788.28;5059617;28;20066;-47
2021/07/11 01:48:07;;;;;;;17.08;9.32;;;;;;;14.52;83.62;101797.44;5063458;28;20025;-48
2021/07/11 01:50:33;;;;;;;12.52;8.15;;;;;;;14.54;83.59;101793.69;5068619;28;20504;-48
2021/07/11 01:52:59;;;;;;;18.38;8.30;;;;;;;14.54;83.50;101793.69;5064405;28;20490;-47
2021/07/11 01:55:28;;;;;;;9.73;6.68;;;;;;;14.51;83.41;101790.41;5066630;28;20048;-48
2021/07/11 01:57:54;;;;;;;10.98;8.02;;;;;;;14.50;83.47;101796.06;5066642;28;20063;-48
2021/07/11 02:00:20;;;;;;;13.27;8.68;;;;;;;14.52;83.32;101799.31;5063016;28;20056;-47
2021/07/11 02:02:48;;;;;;;14.60;9.75;;;;;;;14.53;83.56;101806.34;5060758;28;20433;-48
2021/07/11 02:05:15;;;;;;;19.00;9.82;;;;;;;14.53;83.64;101800.94;5067130;28;20122;-48
2021/07/11 02:07:41;;;;;;;15.25;9.48;;;;;;;14.52;83.65;101802.84;5065248;28;20034;-48
2021/07/11 02:10:10;;;;;;;17.63;9.35;;;;;;;14.52;83.63;101807.41;5067369;28;20094;-47
2021/07/11 02:12:43;;;;;;;16.27;9.07;;;;;;;14.49;83.54;101807.91;5066223;28;20095;-47
2021/07/11 02:15:09;;;;;;;15.55;8.57;;;;;;;14.49;83.66;101805.22;5046771;28;20031;-48
2021/07/11 02:17:41;;;;;;;12.75;7.90;;;;;;;14.48;83.80;101808.97;5062142;28;20032;-47
2021/07/11 02:20:07;;;;;;;18.33;9.18;;;;;;;14.48;83.68;101808.97;5066329;28;20025;-50
2021/07/11 02:22:35;;;;;;;15.43;10.00;;;;;;;14.50;83.65;101809.53;5066055;28;20032;-47
2021/07/11 02:25:01;;;;;;;14.30;9.35;;;;;;;14.51;83.85;101812.00;5064858;28;20082;-48
2021/07/11 02:27:27;;;;;;;17.38;10.32;;;;;;;14.52;83.92;101812.81;5066524;28;20036;-47
2021/07/11 02:29:56;;;;;;;15.85;10.27;;;;;;;14.53;83.75;101817.13;5063666;28;20021;-48
2021/07/11 02:32:24;;;;;;;17.45;9.95;;;;;;;14.56;83.67;101813.16;5062807;28;20032;-48
2021/07/11 02:34:50;;;;;;;14.15;9.48;;;;;;;14.57;83.61;101818.28;5065259;28;20028;-47
2021/07/11 02:37:21;;;;;;;16.23;10.18;;;;;;;14.60;83.69;101820.50;5065918;28;20331;-48
2021/07/11 02:39:49;;;;;;;15.68;9.40;;;;;;;14.62;83.65;101812.97;5061847;28;20145;-47
2021/07/11 02:42:17;;;;;;;14.30;9.07;;;;;;;14.64;83.64;101812.72;5066072;28;20040;-47
2021/07/11 02:44:47;;;;;;;12.57;9.02;;;;;;;14.65;83.63;101814.34;5063764;28;20493;-48
2021/07/11 02:47:20;;;;;;;17.70;10.32;;;;;;;14.64;83.65;101808.13;5063046;28;20024;-48
2021/07/11 02:49:51;;;;;;;16.33;10.13;;;;;;;14.65;83.80;101820.56;5063347;28;20368;-50
2021/07/11 02:52:20;;;;;;;18.50;10.38;;;;;;;14.68;83.77;101816.53;5064083;28;20024;-47
2021/07/11 02:54:49;;;;;;;12.50;9.18;;;;;;;14.71;83.82;101821.44;5048885;28;20052;-47
2021/07/11 02:57:19;;;;;;;19.65;11.88;;;;;;;14.69;85.12;101821.69;5065078;28;20098;-47
2021/07/11 02:59:46;;;;;;;12.70;9.05;;;;;;;14.67;85.40;101826.50;5064595;28;20032;-47
2021/07/11 03:02:13;;;;;;;13.82;9.88;;;;;;;14.76;84.71;101824.22;5063584;28;20020;-49
2021/07/11 03:04:41;;;;;;;13.05;10.00;;;;;;;14.82;84.42;101834.81;5066765;28;20020;-51
2021/07/11 03:07:07;;;;;;;11.25;9.50;;;;;;;14.88;84.25;101832.16;5065230;28;20345;-49
2021/07/11 03:09:33;;;;;;;14.52;9.98;;;;;;;14.92;84.16;101836.03;5066844;28;20028;-48
2021/07/11 03:12:00;;;;;;;17.40;11.80;;;;;;;14.95;84.36;101841.72;5063129;28;20024;-49
2021/07/11 03:14:27;;;;;;;13.85;9.77;;;;;;;15.01;84.10;101831.81;5062766;28;20130;-47
2021/07/11 03:16:56;;;;;;;13.27;9.63;;;;;;;15.06;84.22;101839.97;5059692;28;20217;-47
2021/07/11 03:19:25;;;;;;;13.60;10.77;;;;;;;15.09;84.12;101844.88;5063357;28;20027;-47
2021/07/11 03:21:51;;;;;;;13.63;9.55;;;;;;;15.16;84.04;101839.28;5062307;28;20442;-48
2021/07/11 03:24:29;;;;;;;14.15;10.18;;;;;;;15.20;83.98;101830.41;5061509;28;20036;-50
2021/07/11 03:26:56;;;;;;;12.50;9.75;;;;;;;15.29;84.18;101838.91;5065321;28;20112;-51
2021/07/11 03:30:01;;;;;;;13.30;9.80;;;;;;;15.31;84.20;101840.28;5066408;28;20389;-49
2021/07/11 03:32:29;;;;;;;13.82;10.65;;;;;;;15.40;84.00;101835.22;5064827;28;20162;-48
2021/07/11 03:34:59;;;;;;;16.88;10.65;;;;;;;15.45;84.02;101837.19;5063263;28;20425;-48
2021/07/11 03:37:25;;;;;;;17.65;10.98;;;;;;;15.51;84.07;101830.75;5064332;28;20055;-50
2021/07/11 03:39:52;;;;;;;14.45;11.40;;;;;;;15.58;83.94;101839.47;5065191;28;20063;-48
2021/07/11 03:42:20;;;;;;;21.45;12.38;;;;;;;15.62;84.30;101840.66;5064991;28;20024;-50
2021/07/11 03:44:55;;;;;;;14.50;11.23;;;;;;;15.65;84.39;101838.25;5064985;28;20074;-48
2021/07/11 03:47:24;;;;;;;;;;;;;;;15.65;84.76;101840.13;5066202;28;20025;-55
2021/07/11 03:49:53;;;;;;;19.45;11.63;;;;;;;15.77;83.96;101840.75;5063845;28;19919;-51
2021/07/11 03:52:22;;;;;;;20.00;12.65;;;;;;;15.83;83.97;101842.47;5062196;28;20044;-49
2021/07/11 03:54:49;;;;;;;17.10;11.50;;;;;;;15.89;83.73;101844.13;5061952;28;20108;-48
2021/07/11 03:57:15;;;;;;;14.65;10.45;;;;;;;15.95;83.91;101840.38;5062707;28;20040;-48
2021/07/11 03:59:41;;;;;;;13.82;10.50;;;;;;;15.99;83.84;101844.22;5065688;28;20206;-48
2021/07/11 04:02:08;;;;;;;15.85;11.90;;;;;;;16.03;83.98;101844.53;5063153;28;20024;-50
2021/07/11 04:04:38;;;;;;;23.63;10.75;;;;;;;16.07;83.95;101837.53;5063455;28;20389;-49
2021/07/11 04:07:05;;;;;;;17.08;10.52;;;;;;;16.12;83.97;101844.84;5059565;28;20021;-48
2021/07/11 04:09:31;;;;;;;16.58;10.15;;;;;;;16.14;83.86;101842.69;5066344;28;20421;-49
2021/07/11 04:11:57;;;;;;;14.32;9.75;;;;;;;16.20;83.86;101847.09;5059586;28;20502;-49
2021/07/11 04:14:23;;;;;;;15.88;10.15;;;;;;;16.24;83.93;101850.91;5063029;28;20042;-48
2021/07/11 04:16:54;;;;;;;13.05;10.57;;;;;;;16.27;83.84;101844.97;5059467;28;20024;-48
2021/07/11 04:19:24;;;;;;;16.48;11.00;;;;;;;16.33;83.93;101850.16;5044983;28;20081;-48
2021/07/11 04:21:52;;;;;;;15.70;10.73;;;;;;;16.38;83.74;101848.56;5060832;28;20032;-50
2021/07/11 04:24:19;;;;;;;20.30;11.40;;;;;;;16.43;83.76;101849.41;5063686;28;20420;-49
2021/07/11 04:26:45;;;;;;;15.55;10.18;;;;;;;16.49;83.58;101850.25;5063425;28;20126;-49
2021/07/11 04:29:12;;;;;;;12.63;9.75;;;;;;;16.56;83.40;101848.16;5062281;28;20561;-51
2021/07/11 04:31:37;;;;;;;15.32;10.40;;;;;;;16.63;83.22;101857.66;5064474;28;20555;-50
2021/07/11 04:34:14;;;;;;;12.40;10.18;;;;;;;16.68;83.09;101853.38;5060687;28;20032;-49
2021/07/11 04:36:39;;;;;;;14.85;9.65;;;;;;;16.77;82.79;101857.25;5061759;28;20024;-52
2021/07/11 04:39:05;;;;;;;13.05;10.25;;;;;;;16.86;82.49;101858.34;5061026;28;20024;-50
2021/07/11 04:41:30;;;;;;;15.02;10.43;;;;;;;16.92;82.31;101862.75;5062833;28;20020;-49
2021/07/11 04:44:02;;;;;;;15.50;10.52;;;;;;;16.99;82.15;101866.00;5062733;28;20108;-50
2021/07/11 04:46:27;;;;;;;12.65;10.30;;;;;;;17.07;82.04;101862.00;5065602;28;20024;-50
2021/07/11 04:48:53;;;;;;;14.68;10.40;;;;;;;17.11;81.89;101869.31;5062698;28;20278;-51
2021/07/11 04:51:18;;;;;;;15.00;9.75;;;;;;;17.16;81.75;101861.22;5059633;28;20020;-50
2021/07/11 04:53:44;;;;;;;13.88;9.95;;;;;;;17.22;81.81;101862.84;5060750;28;20032;-51
2021/07/11 04:56:10;;;;;;;13.38;9.80;;;;;;;17.27;81.58;101863.97;5063463;28;20024;-48
2021/07/11 04:58:35;;;;;;;12.07;9.45;;;;;;;17.33;81.57;101871.84;5065389;28;20024;-50
2021/07/11 05:01:01;;;;;;;13.00;9.27;;;;;;;17.38;81.28;101866.44;5062450;28;20077;-50
2021/07/11 05:03:26;;;;;;;12.65;9.93;;;;;;;17.45;81.21;101866.19;5061286;28;20043;-51
2021/07/11 05:05:52;;;;;;;15.65;9.40;;;;;;;17.50;81.13;101863.50;5060228;28;20394;-51
2021/07/11 05:08:17;;;;;;;11.85;10.13;;;;;;;17.58;81.12;101871.09;5060292;28;20040;-48
2021/07/11 05:10:42;;;;;;;14.63;10.55;;;;;;;17.63;81.21;101870.31;5059049;28;20031;-51
2021/07/11 05:13:08;;;;;;;16.40;11.18;;;;;;;17.70;81.45;101868.97;5063106;28;20100;-50
2021/07/11 05:15:33;;;;;;;15.07;10.23;;;;;;;17.75;81.52;101863.56;5062325;28;20489;-49
2021/07/11 05:17:59;;;;;;;14.27;10.80;;;;;;;17.86;80.98;101864.41;5062896;28;20086;-48
2021/07/11 05:20:24;;;;;;;12.75;10.05;;;;;;;17.94;80.89;101863.03;5060021;28;20028;-49
2021/07/11 05:22:50;;;;;;;17.08;10.30;;;;;;;18.04;80.79;101865.75;5062823;28;20041;-50
2021/07/11 05:25:16;;;;;;;15.52;10.23;;;;;;;18.15;80.47;101870.13;5061247;28;20509;-49
2021/07/11 05:27:41;;;;;;;12.73;9.25;;;;;;;18.31;80.18;101863.59;5062372;28;20069;-49
2021/07/11 05:30:07;;;;;;;15.35;9.98;;;;;;;18.47;79.63;101866.28;5061594;28;20078;-48
2021/07/11 05:32:33;;;;;;;13.05;10.00;;;;;;;18.64;79.15;101862.19;5062534;28;20041;-52
2021/07/11 05:34:58;;;;;;;11.65;9.38;;;;;;;18.85;78.70;101867.56;5060552;28;20030;-50
2021/07/11 05:37:24;;;;;;;11.95;9.18;;;;;;;18.99;78.14;101857.75;5062400;28;20422;-52
2021/07/11 05:39:50;;;;;;;13.20;9.13;;;;;;;19.15;77.94;101866.66;5061962;28;20400;-51
2021/07/11 05:42:15;;;;;;;10.27;8.20;;;;;;;19.36;76.93;101868.19;5062064;28;20497;-48
2021/07/11 05:44:40;;;;;;;12.70;8.20;;;;;;;19.59;76.15;101869.47;5064270;28;20031;-51
2021/07/11 05:47:06;;;;;;;10.68;8.27;;;;;;;19.75;76.25;101872.88;5059790;28;20466;-52
2021/07/11 05:49:31;;;;;;;11.00;7.78;;;;;;;19.96;75.58;101870.84;5058116;28;20501;-49
2021/07/11 05:51:57;;;;;;;13.07;7.20;;;;;;;20.11;75.16;101865.28;5061360;28;20020;-51
2021/07/11 05:54:22;;;;;;;9.30;7.20;;;;;;;20.38;74.37;101864.75;5063292;28;20051;-49
2021/07/11 05:56:48;;;;;;;8.88;6.75;;;;;;;20.72;72.83;101862.00;5060663;28;20032;-49
2021/07/11 05:59:13;;;;;;;10.32;7.15;;;;;;;21.06;72.31;101868.16;5060325;28;20553;-50
2021/07/11 06:01:39;;;;;;;8.80;6.88;;;;;;;21.47;70.44;101861.38;5060344;28;20025;-50
2021/07/11 06:04:04;;;;;;;9.07;7.00;;;;;;;21.75;68.94;101868.59;5045467;28;20044;-52
2021/07/11 06:06:30;;;;;;;8.13;6.88;;;;;;;21.92;67.17;101868.88;5063086;28;20031;-49
2021/07/11 06:08:55;;;;;;;8.75;6.32;;;;;;;21.96;67.42;101856.25;5062728;28;20025;-52
2021/07/11 06:11:20;;;;;;;7.75;5.95;;;;;;;;;;5060927;28;20028;-50
2021/07/11 06:13:46;;;;;;;8.60;6.30;;;;;;;22.57;64.63;101871.59;5059780;28;20040;-48
2021/07/11 06:16:12;;;;;;;7.28;6.57;;;;;;;22.83;63.43;101865.69;5058991;28;20024;-50
2021/07/11 06:18:37;;;;;;;7.93;6.25;;;;;;;22.83;62.42;101865.69;5058436;28;20024;-50
2021/07/11 06:21:03;;;;;;;7.65;6.32;;;;;;;22.93;61.94;101860.00;5063101;28;20363;-48
2021/07/11 06:23:28;;;;;;;7.50;5.53;;;;;;;22.93;61.47;101854.53;5062833;28;20222;-51
2021/07/11 06:25:54;;;;;;;9.95;5.90;;;;;;;22.86;61.35;101856.88;5058557;28;20020;-49
2021/07/11 06:28:19;;;;;;;9.68;5.85;;;;;;;22.86;61.86;101859.59;5062355;28;20020;-52
2021/07/11 06:30:45;;;;;;;7.45;5.53;;;;;;;22.86;62.11;101859.59;5060439;28;20024;-48
2021/07/11 06:33:10;;;;;;;6.82;5.55;;;;;;;22.91;61.71;101862.22;5060503;28;20426;-49
2021/07/11 06:35:36;;;;;;;8.07;5.63;;;;;;;22.83;60.83;101860.22;5066556;28;20020;-49
2021/07/11 06:38:01;;;;;;;8.00;5.47;;;;;;;22.85;62.49;101858.78;5064329;28;20063;-51
2021/07/11 06:40:27;;;;;;;8.90;5.63;;;;;;;23.18;61.66;101867.69;5065507;28;20020;-48
2021/07/11 06:42:53;;;;;;;9.02;6.35;;;;;;;23.44;61.07;101850.72;5063913;28;20116;-49
2021/07/11 06:45:18;;;;;;;8.10;6.25;;;;;;;23.54;59.73;101850.50;5065934;28;20036;-51
2021/07/11 06:47:44;;;;;;;7.45;5.95;;;;;;;23.69;60.24;101849.34;5065718;28;20020;-48
2021/07/11 06:50:12;;;;;;;6.22;5.35;;;;;;;23.88;59.88;101860.09;5064660;28;20024;-49
2021/07/11 06:52:38;;;;;;;8.90;5.93;;;;;;;23.91;58.56;101857.56;5064022;28;20024;-50
2021/07/11 06:55:06;;;;;;;5.57;5.03;;;;;;;23.79;59.07;101858.13;5064601;28;20111;-48
2021/07/11 06:57:33;;;;;;;6.35;5.57;;;;;;;23.75;58.52;101859.88;5063077;28;20436;-49
2021/07/11 06:59:59;;;;;;;13.50;5.85;;;;;;;23.90;57.50;101860.63;5064898;28;21973;-49
2021/07/11 07:02:24;;;;;;;13.02;5.78;;;;;;;23.96;58.04;101862.09;5066343;28;20028;-50
2021/07/11 07:04:49;;;;;;;8.65;4.95;;;;;;;24.24;56.69;101866.31;5064667;28;20028;-49
2021/07/11 07:07:15;;;;;;;6.07;5.25;;;;;;;24.48;55.88;101856.97;5064433;28;20024;-51
2021/07/11 07:09:40;;;;;;;8.07;5.63;;;;;;;24.60;56.32;101862.69;5061388;28;20029;-51
2021/07/11 07:12:06;;;;;;;6.22;5.63;;;;;;;24.63;55.45;101859.31;5063533;28;20195;-52
2021/07/11 07:14:32;;;;;;;8.15;5.72;;;;;;;24.75;54.91;101861.41;5066362;28;20095;-49
2021/07/11 07:16:58;;;;;;;6.90;5.10;;;;;;;24.81;54.65;101852.75;5065333;28;20060;-49
2021/07/11 07:19:24;;;;;;;8.40;5.18;;;;;;;24.61;54.18;101854.13;5063225;28;20497;-49
2021/07/11 07:21:49;;;;;;;7.82;4.82;;;;;;;24.81;52.97;101857.44;5064079;28;20028;-49
2021/07/11 07:24:15;;;;;;;7.38;4.82;;;;;;;24.82;52.60;101848.88;5065066;28;20040;-49
2021/07/11 07:26:40;;;;;;;7.15;4.90;;;;;;;25.00;51.86;101850.59;5065792;28;20090;-51
2021/07/11 07:29:06;;;;;;;7.28;5.43;;;;;;;25.11;52.20;101845.59;5064221;28;20350;-52
2021/07/11 07:31:31;;;;;;;8.73;5.03;;;;;;;25.20;51.87;101840.94;5062467;28;20671;-50
2021/07/11 07:33:57;;;;;;;9.38;4.90;;;;;;;25.24;50.99;101849.34;5063464;28;20068;-48
2021/07/11 07:36:23;;;;;;;6.90;4.80;;;;;;;25.41;50.55;101849.34;5062783;28;20028;-49
2021/07/11 07:38:48;;;;;;;6.38;5.00;;;;;;;25.57;50.88;101841.44;5062883;28;20063;-49
2021/07/11 07:41:14;;;;;;;5.18;4.30;;;;;;;25.82;50.01;101843.38;5064430;28;20025;-51
2021/07/11 07:43:39;;;;;;;8.25;5.22;;;;;;;25.96;50.64;101840.47;5062143;28;20060;-49
2021/07/11 07:46:05;;;;;;;8.20;4.75;;;;;;;26.15;49.62;101842.84;5064331;28;20063;-52
2021/07/11 07:48:30;;;;;;;5.70;4.93;;;;;;;26.25;49.32;101849.94;5065719;28;20478;-49
2021/07/11 07:50:57;;;;;;;7.32;4.93;;;;;;;26.25;48.45;101842.50;5062025;28;20383;-49
2021/07/11 07:53:23;;;;;;;7.75;4.95;;;;;;;26.32;48.21;101848.31;5061050;28;20032;-49
2021/07/11 07:55:49;;;;;;;6.88;4.65;;;;;;;26.37;46.89;101839.09;5061762;28;20021;-48
2021/07/11 07:58:15;;;;;;;5.65;4.40;;;;;;;26.34;47.81;101847.97;5064499;28;22370;-48
2021/07/11 08:00:41;;;;;;;5.50;4.80;;;;;;;26.50;47.76;101846.31;5061562;28;20486;-49
2021/07/11 08:03:07;;;;;;;5.57;4.97;;;;;;;26.50;46.67;101841.63;5065188;28;20036;-51
2021/07/11 08:05:32;;;;;;;5.32;4.50;;;;;;;26.41;46.48;101853.81;5062066;28;20024;-50
2021/07/11 08:07:58;;;;;;;6.75;4.30;;;;;;;26.55;45.91;101848.88;5059385;28;20265;-49
2021/07/11 08:10:23;;;;;;;6.47;4.88;;;;;;;26.74;47.47;101845.72;5064183;28;20017;-50
2021/07/11 08:12:49;;;;;;;5.53;4.97;;;;;;;27.00;47.14;101846.44;5062692;28;20031;-49
2021/07/11 08:15:16;;;;;;;6.97;4.40;;;;;;;27.16;45.96;101846.66;5062413;28;20158;-49
2021/07/11 08:17:51;;;;;;;6.30;4.57;;;;;;;27.24;45.20;101836.72;5064134;28;20105;-50
2021/07/11 08:20:20;;;;;;;4.63;3.97;;;;;;;27.19;44.70;101843.25;5064036;28;20031;-52
2021/07/11 08:22:46;;;;;;;6.22;4.78;;;;;;;27.38;45.95;101843.59;5062999;28;20547;-49
2021/07/11 08:25:12;;;;;;;5.00;4.50;;;;;;;27.48;46.24;101841.56;5063711;28;20031;-51
2021/07/11 08:27:40;;;;;;;4.50;4.10;;;;;;;27.53;43.54;101846.88;5062120;28;20025;-53
2021/07/11 08:30:08;;;;;;;7.35;3.72;;;;;;;27.46;43.70;101841.09;5062327;28;20418;-52
2021/07/11 08:32:33;;;;;;;6.28;3.85;;;;;;;27.70;43.17;101846.75;5064082;28;20256;-49
2021/07/11 08:34:59;;;;;;;4.50;3.70;;;;;;;27.72;41.80;101844.47;5062284;28;20039;-53
2021/07/11 08:37:25;;;;;;;4.50;3.47;;;;;;;27.67;41.00;101839.97;5060598;28;20039;-53
2021/07/11 08:39:51;;;;;;;5.25;3.90;;;;;;;27.59;40.88;101843.56;5062719;28;20028;-51
2021/07/11 08:42:18;;;;;;;5.13;4.20;;;;;;;27.72;40.91;101838.97;5062481;28;20051;-52
2021/07/11 08:44:43;;;;;;;4.43;3.70;;;;;;;27.78;41.51;101843.09;5062985;28;20097;-50
2021/07/11 08:47:09;;;;;;;4.85;3.70;;;;;;;27.71;38.96;101834.59;5062124;28;20478;-52
2021/07/11 08:49:34;;;;;;;6.93;3.67;;;;;;;27.81;39.90;101845.19;5062418;28;20321;-50
2021/07/11 08:52:01;;;;;;;7.88;3.90;;;;;;;27.90;39.20;101843.16;5058681;28;20017;-53
2021/07/11 08:54:26;;;;;;;5.00;3.75;;;;;;;27.93;38.86;101838.91;5062015;28;20151;-52
2021/07/11 08:57:05;;;;;;;6.43;3.88;;;;;;;28.05;40.17;101849.19;5058865;28;20119;-49
2021/07/11 08:59:32;;;;;;;4.60;3.47;;;;;;;28.16;38.13;101847.56;5063544;28;20432;-52
2021/07/11 09:01:58;;;;;;;5.07;3.60;;;;;;;28.14;36.20;101847.13;5056571;28;20086;-52
2021/07/11 09:04:24;;;;;;;5.50;3.47;;;;;;;28.28;38.06;101847.66;5060566;28;20256;-49
2021/07/11 09:06:56;;;;;;;5.22;2.97;;;;;;;28.32;36.34;101848.56;5064295;28;20032;-52
2021/07/11 09:09:28;;;;;;;5.38;3.42;;;;;;;28.32;36.35;101848.56;5061793;28;20028;-50
2021/07/11 09:12:16;;;;;;;4.40;3.78;;;;;;;28.22;38.08;101844.28;5063799;28;20020;-51
2021/07/11 09:14:43;;;;;;;4.10;3.70;;;;;;;28.08;36.73;101845.72;5060328;28;20055;-50
2021/07/11 09:17:11;;;;;;;5.00;3.60;;;;;;;28.35;37.56;101839.59;5062585;28;20024;-51
2021/07/11 09:19:51;;;;;;;3.90;3.17;;;;;;;28.25;36.91;101838.13;5061243;28;20107;-52
2021/07/11 09:22:19;;;;;;;7.75;3.42;;;;;;;28.47;36.94;101838.81;5058785;28;20541;-52
2021/07/11 09:24:49;;;;;;;4.65;3.58;;;;;;;28.51;36.72;101840.53;5056814;28;20095;-52
2021/07/11 09:27:20;;;;;;;5.05;3.50;;;;;;;28.70;37.61;101837.22;5061662;28;20028;-51
2021/07/11 09:29:46;;;;;;;4.85;3.47;;;;;;;28.82;36.96;101834.47;5060416;28;20021;-52
2021/07/11 09:32:34;;;;;;;4.18;3.03;;;;;;;28.70;38.22;101842.72;5060755;28;20021;-51
2021/07/11 09:35:08;;;;;;;4.90;3.63;;;;;;;29.08;36.50;101831.34;5062468;28;20028;-52
2021/07/11 09:37:37;;;;;;;5.07;3.40;;;;;;;29.15;36.03;101837.09;5060145;28;20046;-52
2021/07/11 09:40:04;;;;;;;3.58;3.28;;;;;;;29.10;35.69;101836.53;5061181;28;20444;-50
2021/07/11 09:42:36;;;;;;;9.00;3.60;;;;;;;29.27;35.11;101843.75;5062053;28;20028;-50
2021/07/11 09:45:22;;;;;;;3.83;3.47;;;;;;;29.19;35.41;101842.72;5060875;28;20031;-52
2021/07/11 09:48:03;;;;;;;3.72;3.42;;;;;;;29.27;34.86;101849.28;5060557;28;20040;-50
2021/07/11 09:50:28;;;;;;;6.13;3.45;;;;;;;29.21;35.34;101834.09;5060250;28;20390;-49
2021/07/11 09:52:57;;;;;;;4.38;3.97;;;;;;;29.35;35.31;101832.56;5062241;28;20035;-48
2021/07/11 09:55:31;;;;;;;4.90;3.33;;;;;;;29.54;36.56;101831.94;5043060;28;20082;-49
2021/07/11 09:58:02;;;;;;;4.28;3.47;;;;;;;29.76;35.51;101833.34;5061951;28;20105;-50
2021/07/11 10:00:32;;;;;;;7.60;3.22;;;;;;;29.85;35.09;101835.97;5059430;28;20025;-50
2021/07/11 10:02:59;;;;;;;4.63;3.40;;;;;;;29.89;34.92;101826.63;5061623;28;20029;-49
2021/07/11 10:05:26;;;;;;;4.40;3.60;;;;;;;29.88;37.27;101832.50;5058103;28;20029;-50
2021/07/11 10:07:53;;;;;;;4.30;3.50;;;;;;;29.85;35.20;101844.25;5059895;28;20264;-48
2021/07/11 10:10:21;;;;;;;4.80;4.03;;;;;;;29.89;35.07;101836.88;5065224;28;20032;-49
2021/07/11 10:12:48;;;;;;;5.35;3.72;;;;;;;29.85;37.00;101844.25;5063726;28;20081;-49
2021/07/11 10:15:25;;;;;;;4.75;4.03;;;;;;;29.93;35.66;101844.09;5065183;28;20537;-49
2021/07/11 10:17:58;;;;;;;7.20;3.75;;;;;;;29.56;34.65;101837.91;5062418;28;20379;-49
2021/07/11 10:20:34;;;;;;;4.53;3.53;;;;;;;29.81;34.05;101841.41;5065983;28;20028;-49
2021/07/11 10:23:01;;;;;;;3.72;3.42;;;;;;;29.76;34.90;101834.16;5063534;28;20043;-50
2021/07/11 10:25:28;;;;;;;8.18;3.70;;;;;;;29.39;35.22;101846.47;5063465;28;20041;-49
2021/07/11 10:28:14;;;;;;;5.35;4.03;;;;;;;28.96;34.72;101856.22;5062063;28;20036;-50
2021/07/11 10:30:46;;;;;;;4.55;4.07;;;;;;;29.36;36.04;101855.44;5065182;28;20456;-49
2021/07/11 10:33:16;;;;;;;6.53;3.75;;;;;;;29.65;34.92;101843.31;5062448;28;20020;-49
2021/07/11 10:36:04;;;;;;;6.20;3.70;;;;;;;29.74;35.37;101838.41;5061756;28;20025;-49
2021/07/11 10:38:32;;;;;;;4.55;3.28;;;;;;;29.46;35.19;101836.47;5064897;28;20437;-49
2021/07/11 10:41:19;;;;;;;3.63;3.33;;;;;;;29.54;34.92;101836.66;5063489;28;20035;-48
2021/07/11 10:43:58;;;;;;;3.63;3.22;;;;;;;29.99;34.80;101830.84;5065315;28;20036;-49
2021/07/11 10:46:34;;;;;;;4.13;3.20;;;;;;;30.07;35.21;101829.88;5063671;28;20035;-49
2021/07/11 10:49:20;;;;;;;5.03;3.63;;;;;;;30.32;35.09;101825.78;5065412;28;20032;-48
2021/07/11 10:51:57;;;;;;;4.65;3.60;;;;;;;30.69;34.19;101833.81;5063803;28;20020;-49
2021/07/11 10:54:37;;;;;;;3.72;3.40;;;;;;;30.97;32.97;101836.47;5066650;28;20025;-49
2021/07/11 10:57:04;;;;;;;3.97;3.40;;;;;;;30.77;33.56;101827.31;5063421;28;20378;-51
2021/07/11 10:59:41;;;;;;;6.35;3.53;;;;;;;30.74;31.97;101839.09;5063470;28;20199;-50
2021/07/11 11:02:12;;;;;;;4.00;3.60;;;;;;;30.79;31.86;101829.72;5060824;28;20548;-50
2021/07/11 11:04:38;;;;;;;5.03;3.28;;;;;;;30.68;31.74;101829.44;5060255;28;20051;-52
2021/07/11 11:07:15;;;;;;;4.00;3.60;;;;;;;30.55;32.91;101834.28;5066232;28;20462;-49
2021/07/11 11:09:43;;;;;;;3.97;3.63;;;;;;;30.53;33.72;101836.59;5061574;28;20052;-49
2021/07/11 11:12:24;;;;;;;11.00;4.03;;;;;;;30.70;33.83;101831.84;5066020;28;20031;-52
2021/07/11 11:14:55;;;;;;;3.75;3.35;;;;;;;31.00;32.71;101824.66;5064159;28;20044;-50
2021/07/11 11:17:36;;;;;;;4.38;3.55;;;;;;;31.06;33.11;101826.00;5063745;28;20029;-50
2021/07/11 11:20:08;;;;;;;3.97;3.58;;;;;;;31.22;32.23;101831.50;5062046;28;20029;-50
2021/07/11 11:22:34;;;;;;;3.88;3.28;;;;;;;31.08;32.15;101820.91;5064187;28;20054;-49
2021/07/11 11:25:00;;;;;;;4.25;3.63;;;;;;;30.87;31.58;101826.72;5065490;28;20032;-50